Time;durP1;ratioP1;P1;durP2;ratioP2;P2;SDS_P1;SDS_P2;PMS_P1;PMS_P2;Temp;Humidity;BMP_temperature;BMP_pressure;BME280_temperature;BME280_humidity;BME280_pressure;Samples;Min_cycle;Max_cycle;Signal;HPM_P1;HPM_P2
2023/08/01 00:00:09;;;;;;;7.55;2.65;;;;;;;16.95;100.00;96296.28;5063858;28;20048;-57
2023/08/01 00:02:42;;;;;;;7.72;3.15;;;;;;;16.92;100.00;96292.28;5064036;28;20125;-56
2023/08/01 00:05:09;;;;;;;7.57;2.65;;;;;;;16.89;100.00;96296.44;5061484;28;20051;-56
2023/08/01 00:07:36;;;;;;;6.32;2.92;;;;;;;16.86;100.00;96294.34;5063489;28;20499;-57
2023/08/01 00:10:04;;;;;;;6.40;2.78;;;;;;;16.86;100.00;96286.16;5063314;28;20052;-57
2023/08/01 00:12:31;;;;;;;5.82;2.85;;;;;;;16.86;100.00;96288.06;5063856;28;20036;-55
2023/08/01 00:14:57;;;;;;;5.57;2.45;;;;;;;16.96;100.00;96268.63;5062698;28;20167;-57
2023/08/01 00:17:24;;;;;;;6.00;2.53;;;;;;;16.95;100.00;96275.22;5063838;28;20040;-57
2023/08/01 00:19:51;;;;;;;6.75;2.85;;;;;;;17.02;100.00;96274.72;5063552;28;20624;-56
2023/08/01 00:22:17;;;;;;;4.85;2.70;;;;;;;17.03;100.00;96274.41;5063418;28;20135;-55
2023/08/01 00:24:44;;;;;;;6.63;3.13;;;;;;;17.01;100.00;96256.72;5062842;28;20049;-53
2023/08/01 00:27:11;;;;;;;6.35;3.08;;;;;;;16.99;100.00;96237.91;5062469;28;20041;-55
2023/08/01 00:29:37;;;;;;;5.30;2.63;;;;;;;16.89;100.00;96239.00;5060191;28;20037;-56
2023/08/01 00:32:04;;;;;;;5.72;2.50;;;;;;;16.84;100.00;96230.97;5063222;28;20044;-57
2023/08/01 00:34:31;;;;;;;7.20;3.00;;;;;;;16.66;100.00;96223.91;5057820;28;20127;-57
2023/08/01 00:36:58;;;;;;;5.38;2.80;;;;;;;16.61;100.00;96238.50;5061661;28;20047;-56
2023/08/01 00:39:24;;;;;;;5.97;3.00;;;;;;;16.47;100.00;96225.00;5063096;28;20124;-56
2023/08/01 00:41:51;;;;;;;5.50;2.70;;;;;;;16.45;100.00;96225.31;5062781;28;20141;-55
2023/08/01 00:44:17;;;;;;;5.47;2.90;;;;;;;16.34;100.00;96218.53;5065291;28;20114;-56
2023/08/01 00:46:44;;;;;;;7.15;2.72;;;;;;;16.30;100.00;96209.38;5063347;28;20426;-55
2023/08/01 00:49:13;;;;;;;4.97;2.85;;;;;;;16.19;100.00;96215.16;5062532;28;20128;-56
2023/08/01 00:51:39;;;;;;;6.03;3.45;;;;;;;16.37;100.00;96213.25;5062390;28;20065;-56
2023/08/01 00:54:06;;;;;;;7.47;3.17;;;;;;;16.49;100.00;96198.97;5060914;28;20052;-56
2023/08/01 00:56:33;;;;;;;6.72;3.25;;;;;;;16.48;100.00;96183.69;5063166;28;20051;-55
2023/08/01 00:59:00;;;;;;;5.90;3.08;;;;;;;16.59;100.00;96180.66;5060638;28;20029;-54
2023/08/01 01:01:28;;;;;;;6.18;2.85;;;;;;;16.71;100.00;96182.75;5063289;28;20036;-55
2023/08/01 01:03:55;;;;;;;6.10;2.90;;;;;;;16.68;100.00;96183.38;5061378;28;20055;-55
2023/08/01 01:06:28;;;;;;;5.90;2.92;;;;;;;16.75;100.00;96187.25;5060965;28;20085;-56
2023/08/01 01:08:56;;;;;;;6.22;2.80;;;;;;;16.80;100.00;96197.22;5053047;28;20050;-55
2023/08/01 01:11:22;;;;;;;5.55;2.85;;;;;;;16.88;100.00;96195.63;5059930;28;20036;-54
2023/08/01 01:13:52;;;;;;;5.43;2.60;;;;;;;17.01;100.00;96185.63;5060642;28;20666;-56
2023/08/01 01:16:20;;;;;;;5.93;2.65;;;;;;;17.06;100.00;96195.63;5060326;28;20165;-53
2023/08/01 01:18:46;;;;;;;6.43;3.63;;;;;;;17.08;100.00;96190.63;5062141;28;20509;-53
2023/08/01 01:21:13;;;;;;;7.05;3.00;;;;;;;16.96;100.00;96191.25;5058933;28;20044;-55
2023/08/01 01:23:40;;;;;;;7.05;2.97;;;;;;;16.85;100.00;96186.09;5059558;28;20045;-54
2023/08/01 01:26:08;;;;;;;9.10;3.08;;;;;;;16.73;100.00;96188.72;5060636;28;20040;-56
2023/08/01 01:28:36;;;;;;;5.50;2.85;;;;;;;16.63;100.00;96187.88;5061957;28;20120;-55
2023/08/01 01:31:03;;;;;;;6.15;3.30;;;;;;;16.29;100.00;96183.19;5060100;28;20041;-56
2023/08/01 01:33:30;;;;;;;5.57;2.72;;;;;;;16.34;100.00;96177.56;5062597;28;20122;-54
2023/08/01 01:35:56;;;;;;;7.32;3.03;;;;;;;16.23;100.00;96171.63;5061102;28;20048;-53
2023/08/01 01:38:23;;;;;;;7.45;3.15;;;;;;;16.20;100.00;96173.06;5063163;28;20045;-54
2023/08/01 01:40:49;;;;;;;5.82;2.88;;;;;;;16.14;100.00;96174.31;5060680;28;20044;-55
2023/08/01 01:43:16;;;;;;;7.72;3.30;;;;;;;16.06;100.00;96155.97;5062356;28;20376;-57
2023/08/01 01:45:42;;;;;;;9.15;3.70;;;;;;;15.97;100.00;96155.97;5062723;28;20044;-56
2023/08/01 01:48:09;;;;;;;9.75;3.80;;;;;;;15.92;100.00;96148.69;5060838;28;20048;-57
2023/08/01 01:50:35;;;;;;;6.50;2.83;;;;;;;15.83;100.00;96158.78;5062034;28;20062;-56
2023/08/01 01:53:02;;;;;;;6.47;3.25;;;;;;;15.74;100.00;96165.03;5061403;28;20063;-57
2023/08/01 01:55:29;;;;;;;6.20;3.35;;;;;;;15.74;100.00;96167.75;5062265;28;20044;-56
2023/08/01 01:57:56;;;;;;;7.80;3.45;;;;;;;15.80;100.00;96162.97;5059980;28;20587;-54
2023/08/01 02:00:22;;;;;;;6.25;2.95;;;;;;;15.82;100.00;96174.34;5060869;28;20044;-54
2023/08/01 02:02:49;;;;;;;5.93;3.50;;;;;;;15.79;100.00;96157.81;5061007;28;20235;-55
2023/08/01 02:05:15;;;;;;;6.15;3.30;;;;;;;15.81;100.00;96155.59;5061913;28;20043;-57
2023/08/01 02:07:42;;;;;;;6.35;3.25;;;;;;;15.79;100.00;96157.81;5060811;28;20404;-56
2023/08/01 02:10:09;;;;;;;8.07;3.20;;;;;;;15.81;100.00;96155.59;5059539;28;20052;-57
2023/08/01 02:12:36;;;;;;;5.70;2.78;;;;;;;15.85;100.00;96145.66;5059530;28;20052;-57
2023/08/01 02:15:03;;;;;;;7.75;2.78;;;;;;;15.89;100.00;96143.06;5060010;28;20044;-57
2023/08/01 02:17:30;;;;;;;10.60;3.03;;;;;;;15.88;100.00;96153.19;5061462;28;20041;-55
2023/08/01 02:19:56;;;;;;;7.40;3.55;;;;;;;15.86;100.00;96153.50;5060775;28;20033;-55
2023/08/01 02:22:25;;;;;;;7.38;3.67;;;;;;;15.85;100.00;96162.03;5073058;28;20048;-56
2023/08/01 02:24:52;;;;;;;6.00;2.85;;;;;;;15.82;100.00;96174.34;5060268;28;20622;-56
2023/08/01 02:27:19;;;;;;;5.63;2.95;;;;;;;15.81;100.00;96166.50;5060292;28;20584;-56
2023/08/01 02:29:46;;;;;;;6.75;2.78;;;;;;;15.82;100.00;96157.19;5061550;28;20558;-56
2023/08/01 02:32:13;;;;;;;6.28;3.42;;;;;;;15.89;100.00;96167.66;5062522;28;20044;-56
2023/08/01 02:34:39;;;;;;;6.47;2.95;;;;;;;15.89;100.00;96171.19;5063357;28;20040;-56
2023/08/01 02:37:06;;;;;;;9.52;4.00;;;;;;;15.91;100.00;96195.41;5064673;28;20074;-57
2023/08/01 02:39:32;;;;;;;6.57;3.70;;;;;;;15.85;100.00;96175.66;5065920;28;20852;-57
2023/08/01 02:41:59;;;;;;;7.28;3.33;;;;;;;15.82;100.00;96181.75;5063993;28;20056;-57
2023/08/01 02:44:26;;;;;;;6.70;3.25;;;;;;;15.82;100.00;96174.34;5064446;28;20052;-57
2023/08/01 02:46:52;;;;;;;6.95;3.53;;;;;;;15.82;100.00;96181.75;5063562;28;20052;-57
2023/08/01 02:49:19;;;;;;;8.05;4.18;;;;;;;15.87;100.00;96195.25;5065299;28;20036;-56
2023/08/01 02:51:45;;;;;;;7.72;3.78;;;;;;;15.89;100.00;96194.94;5061051;28;20056;-57
2023/08/01 02:54:12;;;;;;;6.60;3.15;;;;;;;15.80;100.00;96176.59;5064640;28;20500;-56
2023/08/01 02:56:41;;;;;;;5.43;2.95;;;;;;;15.72;100.00;96174.66;5059836;28;20037;-56
2023/08/01 02:59:08;;;;;;;9.00;3.65;;;;;;;15.65;100.00;96161.47;5063140;28;20051;-55
2023/08/01 03:01:36;;;;;;;7.85;3.33;;;;;;;15.64;100.00;96140.75;5063331;28;20040;-56
2023/08/01 03:04:03;;;;;;;7.47;3.65;;;;;;;15.70;100.00;96135.97;5061791;28;20048;-56
2023/08/01 03:06:31;;;;;;;9.90;3.72;;;;;;;15.70;100.00;96134.03;5063512;28;20047;-59
2023/08/01 03:08:57;;;;;;;7.13;3.50;;;;;;;15.78;100.00;96105.19;5061612;28;20373;-55
2023/08/01 03:11:25;;;;;;;6.10;3.08;;;;;;;15.83;100.00;96110.47;5061345;28;20095;-55
2023/08/01 03:13:52;;;;;;;7.30;3.38;;;;;;;15.85;100.00;96093.78;5064624;28;20036;-55
2023/08/01 03:16:18;;;;;;;7.25;3.40;;;;;;;15.87;100.00;96094.25;5062818;28;20049;-52
2023/08/01 03:18:45;;;;;;;5.22;3.30;;;;;;;15.91;100.00;96106.16;5062959;28;20045;-55
2023/08/01 03:21:11;;;;;;;5.68;3.42;;;;;;;15.91;100.00;96094.41;5063824;28;20051;-56
2023/08/01 03:23:38;;;;;;;7.38;3.42;;;;;;;15.95;100.00;96100.88;5063477;28;20049;-52
2023/08/01 03:26:05;;;;;;;5.60;3.00;;;;;;;15.96;100.00;96099.78;5064218;28;20041;-54
2023/08/01 03:28:31;;;;;;;6.90;2.88;;;;;;;15.95;100.00;96096.25;5064565;28;20032;-56
2023/08/01 03:30:58;;;;;;;6.78;3.45;;;;;;;15.91;100.00;96097.97;5062614;28;20461;-57
2023/08/01 03:33:26;;;;;;;8.40;3.20;;;;;;;15.94;100.00;96107.44;5062626;28;20745;-57
2023/08/01 03:35:52;;;;;;;6.85;3.50;;;;;;;15.96;100.00;96113.44;5062944;28;20045;-57
2023/08/01 03:38:19;;;;;;;6.05;2.80;;;;;;;15.95;100.00;96109.06;5064787;28;20545;-54
2023/08/01 03:40:46;;;;;;;7.18;3.00;;;;;;;15.96;100.00;96086.13;5064191;28;20048;-56
2023/08/01 03:43:13;;;;;;;8.65;3.50;;;;;;;15.91;100.00;96078.84;5064342;28;20047;-56
2023/08/01 03:45:39;;;;;;;6.55;3.28;;;;;;;15.96;100.00;96086.91;5063862;28;20072;-55
2023/08/01 03:48:06;;;;;;;6.15;2.50;;;;;;;16.04;100.00;96076.34;5063475;28;20422;-56
2023/08/01 03:50:33;;;;;;;6.43;3.25;;;;;;;16.23;100.00;96065.09;5066368;28;20028;-51
2023/08/01 03:53:00;;;;;;;6.47;2.60;;;;;;;16.27;100.00;96049.69;5063203;28;20102;-55
2023/08/01 03:55:26;;;;;;;5.65;2.45;;;;;;;16.38;100.00;96050.97;5062944;28;20036;-56
2023/08/01 03:57:53;;;;;;;6.85;2.40;;;;;;;16.48;100.00;96032.66;5060443;28;20047;-56
2023/08/01 04:00:26;;;;;;;5.07;2.38;;;;;;;16.55;100.00;95993.91;5065899;28;20101;-55
2023/08/01 04:02:52;;;;;;;6.38;2.83;;;;;;;16.58;100.00;95971.41;5062321;28;20040;-56
2023/08/01 04:05:19;;;;;;;6.85;2.70;;;;;;;16.52;100.00;95944.22;5062670;28;20502;-56
2023/08/01 04:07:45;;;;;;;5.50;2.38;;;;;;;16.49;100.00;95941.34;5064228;28;20068;-56
2023/08/01 04:10:12;;;;;;;5.93;2.20;;;;;;;16.50;100.00;95927.38;5063200;28;20044;-56
2023/08/01 04:12:39;;;;;;;4.10;2.10;;;;;;;16.56;100.00;95935.38;5062752;28;20040;-56
2023/08/01 04:15:06;;;;;;;6.65;2.08;;;;;;;16.60;100.00;95939.88;5065129;28;20037;-56
2023/08/01 04:17:32;;;;;;;6.10;2.17;;;;;;;16.61;100.00;95943.41;5064088;28;20052;-56
2023/08/01 04:19:59;;;;;;;5.20;2.58;;;;;;;16.62;100.00;95943.06;5063254;28;20115;-56
2023/08/01 04:22:25;;;;;;;4.68;2.33;;;;;;;16.73;100.00;95926.34;5063650;28;20044;-56
2023/08/01 04:24:52;;;;;;;5.53;1.92;;;;;;;16.67;100.00;95920.25;5063318;28;20048;-53
2023/08/01 04:27:19;;;;;;;5.28;2.03;;;;;;;16.61;100.00;95903.22;5063573;28;20036;-56
2023/08/01 04:29:46;;;;;;;9.30;2.65;;;;;;;16.73;100.00;95893.53;5065764;28;20043;-52
2023/08/01 04:32:14;;;;;;;4.47;2.08;;;;;;;16.82;100.00;95880.63;5065823;28;20040;-56
2023/08/01 04:34:41;;;;;;;6.05;2.30;;;;;;;16.84;100.00;95870.16;5064934;28;20205;-56
2023/08/01 04:37:08;;;;;;;5.05;1.88;;;;;;;16.89;100.00;95883.63;5064257;28;20044;-56
2023/08/01 04:39:34;;;;;;;4.97;2.00;;;;;;;16.88;100.00;95890.22;5063149;28;20028;-58
2023/08/01 04:42:01;;;;;;;8.35;2.33;;;;;;;16.87;100.00;95899.56;5062543;28;20048;-56
2023/08/01 04:44:29;;;;;;;4.65;2.17;;;;;;;16.92;100.00;95925.94;5063239;28;20090;-55
2023/08/01 04:46:56;;;;;;;5.38;1.95;;;;;;;16.93;100.00;95916.59;5059668;28;20071;-56
2023/08/01 04:49:24;;;;;;;4.80;2.15;;;;;;;16.86;100.00;95955.38;5060689;28;20523;-56
2023/08/01 04:51:51;;;;;;;5.00;1.73;;;;;;;16.96;99.89;95978.00;5058686;28;20036;-57
2023/08/01 04:54:18;;;;;;;4.20;2.13;;;;;;;16.89;100.00;95992.19;5059069;28;20052;-57
2023/08/01 04:56:44;;;;;;;4.63;1.90;;;;;;;16.73;100.00;96039.19;5060508;28;20516;-56
2023/08/01 04:59:11;;;;;;;6.43;2.30;;;;;;;16.53;100.00;96037.94;5060467;28;20149;-59
2023/08/01 05:01:38;;;;;;;4.07;1.73;;;;;;;16.52;100.00;96020.72;5060091;28;20044;-57
2023/08/01 05:04:05;;;;;;;6.43;2.10;;;;;;;16.51;100.00;96008.19;5057802;28;20115;-55
2023/08/01 05:06:31;;;;;;;5.50;2.38;;;;;;;16.49;100.00;95996.81;5061185;28;20051;-55
2023/08/01 05:08:59;;;;;;;6.07;2.13;;;;;;;16.53;100.00;95994.22;5061090;28;20051;-56
2023/08/01 05:11:25;;;;;;;4.15;1.70;;;;;;;16.57;100.00;95986.16;5060923;28;20048;-54
2023/08/01 05:13:52;;;;;;;5.20;2.00;;;;;;;16.59;100.00;95970.25;5059836;28;20063;-55
2023/08/01 05:16:18;;;;;;;5.30;2.20;;;;;;;16.61;100.00;95976.19;5060849;28;20041;-56
2023/08/01 05:18:45;;;;;;;4.50;1.85;;;;;;;16.51;100.00;95960.94;5060727;28;20045;-56
2023/08/01 05:21:11;;;;;;;5.35;1.67;;;;;;;16.47;100.00;95966.25;5059927;28;20047;-56
2023/08/01 05:23:38;;;;;;;5.57;2.45;;;;;;;16.43;100.00;95959.84;5062152;28;20519;-54
2023/08/01 05:26:04;;;;;;;5.05;2.22;;;;;;;16.57;100.00;95950.66;5061923;28;20047;-56
2023/08/01 05:28:31;;;;;;;4.40;2.22;;;;;;;16.62;100.00;95966.88;5063077;28;20068;-55
2023/08/01 05:30:58;;;;;;;5.63;2.05;;;;;;;16.75;100.00;95957.69;5061748;28;20129;-56
2023/08/01 05:33:24;;;;;;;6.72;2.03;;;;;;;16.76;100.00;95959.28;5060323;28;20036;-54
2023/08/01 05:35:51;;;;;;;4.80;1.80;;;;;;;16.82;100.00;95950.88;5059745;28;20036;-57
2023/08/01 05:38:17;;;;;;;4.97;2.10;;;;;;;16.74;100.00;95958.78;5059362;28;20113;-57
2023/08/01 05:40:44;;;;;;;5.93;2.17;;;;;;;16.76;100.00;95961.19;5059782;28;20052;-56
2023/08/01 05:43:11;;;;;;;6.15;2.40;;;;;;;16.84;100.00;95965.81;5059972;28;20514;-56
2023/08/01 05:45:37;;;;;;;6.25;2.50;;;;;;;16.99;100.00;95967.22;5061175;28;20041;-56
2023/08/01 05:48:04;;;;;;;5.70;2.70;;;;;;;17.14;100.00;95965.88;5059747;28;20052;-56
2023/08/01 05:50:31;;;;;;;5.43;2.30;;;;;;;16.94;100.00;95972.06;5059947;28;20037;-56
2023/08/01 05:52:57;;;;;;;5.45;2.35;;;;;;;16.82;100.00;95970.84;5059526;28;20111;-57
2023/08/01 05:55:24;;;;;;;6.70;2.90;;;;;;;16.90;100.00;95972.72;5059759;28;20131;-57
2023/08/01 05:57:52;;;;;;;7.80;3.08;;;;;;;16.98;100.00;95979.28;5058574;28;20136;-57
2023/08/01 06:00:21;;;;;;;5.55;2.38;;;;;;;17.02;100.00;95982.97;5059825;28;20514;-57
2023/08/01 06:02:48;;;;;;;5.55;2.22;;;;;;;16.97;100.00;95982.34;5060051;28;20582;-56
2023/08/01 06:05:15;;;;;;;6.03;2.70;;;;;;;16.88;100.00;95990.59;5058868;28;20068;-57
2023/08/01 06:07:41;;;;;;;5.53;2.45;;;;;;;16.89;100.00;95984.00;5063828;28;20119;-57
2023/08/01 06:10:08;;;;;;;8.02;2.40;;;;;;;16.84;100.00;95978.72;5063426;28;20043;-55
2023/08/01 06:12:35;;;;;;;5.95;2.70;;;;;;;16.92;100.00;95985.25;5063440;28;20044;-55
2023/08/01 06:15:02;;;;;;;6.00;2.75;;;;;;;16.89;100.00;95995.72;5062855;28;20067;-56
2023/08/01 06:17:29;;;;;;;8.63;2.80;;;;;;;16.93;100.00;96014.19;5063044;28;20044;-55
2023/08/01 06:19:56;;;;;;;5.28;2.53;;;;;;;16.78;100.00;96014.41;5062813;28;20664;-55
2023/08/01 06:22:22;;;;;;;6.60;2.80;;;;;;;16.64;100.00;96008.34;5063895;28;20040;-56
2023/08/01 06:24:49;;;;;;;6.20;2.85;;;;;;;16.20;100.00;96032.97;5063298;28;20514;-54
2023/08/01 06:27:15;;;;;;;5.90;3.10;;;;;;;16.20;100.00;96041.16;5062978;28;20882;-54
2023/08/01 06:29:42;;;;;;;6.88;3.00;;;;;;;16.03;100.00;96036.50;5061860;28;20108;-55
2023/08/01 06:32:08;;;;;;;6.40;3.10;;;;;;;15.89;100.00;96034.72;5062631;28;20044;-55
2023/08/01 06:34:35;;;;;;;6.53;3.60;;;;;;;15.73;100.00;96037.09;5062605;28;20058;-56
2023/08/01 06:37:02;;;;;;;6.35;3.10;;;;;;;15.67;100.00;96033.69;5063286;28;20043;-56
2023/08/01 06:39:28;;;;;;;5.85;2.92;;;;;;;15.45;100.00;96032.69;5062061;28;20134;-57
2023/08/01 06:41:55;;;;;;;7.00;3.80;;;;;;;15.54;100.00;96046.38;5062758;28;20124;-55
2023/08/01 06:44:22;;;;;;;6.47;3.10;;;;;;;15.45;100.00;96031.91;5062063;28;20041;-57
2023/08/01 06:46:48;;;;;;;7.50;3.33;;;;;;;15.38;100.00;96026.09;5063505;28;20098;-57
2023/08/01 06:49:15;;;;;;;7.63;3.20;;;;;;;15.32;100.00;96047.25;5062181;28;20072;-57
2023/08/01 06:51:42;;;;;;;9.30;3.95;;;;;;;15.35;100.00;96054.81;5059527;28;20090;-56
2023/08/01 06:54:09;;;;;;;7.47;4.30;;;;;;;15.20;100.00;96051.41;5061253;28;20036;-56
2023/08/01 06:56:35;;;;;;;9.20;4.63;;;;;;;15.27;100.00;96070.03;5061509;28;20051;-58
2023/08/01 06:59:02;;;;;;;10.40;3.83;;;;;;;15.42;100.00;96059.81;5020174;28;20040;-55
2023/08/01 07:01:28;;;;;;;6.93;3.15;;;;;;;15.40;100.00;96037.50;5026321;28;20037;-57
2023/08/01 07:03:56;;;;;;;8.38;4.50;;;;;;;15.25;100.00;96022.38;5030318;28;20040;-56
2023/08/01 07:06:23;;;;;;;7.70;3.75;;;;;;;15.31;100.00;96019.19;5028093;28;20343;-56
2023/08/01 07:08:50;;;;;;;8.85;3.97;;;;;;;15.35;100.00;96016.63;5060074;28;20508;-54
2023/08/01 07:11:16;;;;;;;8.25;3.78;;;;;;;15.44;100.00;96012.00;5062114;28;20040;-55
2023/08/01 07:13:43;;;;;;;7.20;3.95;;;;;;;15.46;100.00;96020.69;5062343;28;20499;-55
2023/08/01 07:16:09;;;;;;;8.95;4.20;;;;;;;15.59;100.00;96035.28;5060510;28;20472;-56
2023/08/01 07:18:36;;;;;;;6.97;3.85;;;;;;;15.59;100.00;96048.16;5064192;28;20415;-57
2023/08/01 07:21:04;;;;;;;7.25;4.43;;;;;;;15.50;100.00;96039.13;5063645;28;20567;-57
2023/08/01 07:23:33;;;;;;;13.07;4.32;;;;;;;15.26;100.00;96059.44;5064593;28;20040;-57
2023/08/01 07:25:59;;;;;;;8.88;4.85;;;;;;;15.05;100.00;96068.16;5007241;28;20692;-56
2023/08/01 07:28:26;;;;;;;8.80;4.50;;;;;;;15.08;100.00;96070.25;5003207;28;20052;-55
2023/08/01 07:31:01;;;;;;;12.50;4.53;;;;;;;14.92;100.00;96088.91;5009461;28;20131;-56
2023/08/01 07:33:28;;;;;;;11.98;4.90;;;;;;;14.94;100.00;96101.13;5010691;28;20083;-54
2023/08/01 07:35:54;;;;;;;10.05;5.00;;;;;;;14.91;100.00;96117.28;5049389;28;20048;-51
2023/08/01 07:38:21;;;;;;;8.00;4.28;;;;;;;14.94;100.00;96106.59;5062779;28;20047;-57
2023/08/01 07:40:47;;;;;;;9.57;4.40;;;;;;;14.97;100.00;96104.34;5061835;28;20636;-57
2023/08/01 07:43:14;;;;;;;8.70;4.60;;;;;;;15.07;100.00;96107.63;5060969;28;20162;-55
2023/08/01 07:45:41;;;;;;;7.88;3.92;;;;;;;15.07;100.00;96091.25;5061666;28;20051;-56
2023/08/01 07:48:07;;;;;;;8.75;4.45;;;;;;;15.11;100.00;96085.19;5061971;28;20090;-56
2023/08/01 07:50:34;;;;;;;7.93;4.50;;;;;;;15.13;100.00;96091.13;5047806;28;20045;-56
2023/08/01 07:53:00;;;;;;;7.47;4.10;;;;;;;15.29;100.00;96086.06;5039255;28;20062;-57
2023/08/01 07:55:27;;;;;;;6.78;3.70;;;;;;;15.40;100.00;96071.03;5060586;28;20044;-56
2023/08/01 07:57:53;;;;;;;6.35;2.80;;;;;;;15.31;100.00;96075.66;5024647;28;21751;-57
2023/08/01 08:00:20;;;;;;;7.05;3.17;;;;;;;15.26;100.00;96095.66;5058539;28;20048;-57
2023/08/01 08:02:47;;;;;;;5.75;3.38;;;;;;;15.21;100.00;96099.34;5061545;28;20080;-55
2023/08/01 08:05:13;;;;;;;7.50;3.50;;;;;;;15.22;100.00;96116.50;5060850;28;20067;-57
2023/08/01 08:07:40;;;;;;;7.93;3.17;;;;;;;15.27;100.00;96100.03;5042599;28;20052;-56
2023/08/01 08:10:07;;;;;;;6.22;3.40;;;;;;;15.35;100.00;96109.34;5023475;28;20836;-57
2023/08/01 08:12:33;;;;;;;5.57;2.85;;;;;;;15.40;100.00;96105.69;5061628;28;20053;-56
2023/08/01 08:15:00;;;;;;;7.70;3.05;;;;;;;15.41;100.00;96090.94;5061246;28;20045;-57
2023/08/01 08:17:26;;;;;;;5.15;2.70;;;;;;;15.48;100.00;96074.88;5061207;28;20056;-57
2023/08/01 08:19:53;;;;;;;7.40;3.47;;;;;;;15.56;100.00;96063.19;5059829;28;20051;-56
2023/08/01 08:22:19;;;;;;;7.47;3.42;;;;;;;15.56;100.00;96055.03;5061899;28;20051;-57
2023/08/01 08:24:46;;;;;;;6.30;2.45;;;;;;;15.69;100.00;96047.84;5011329;28;20055;-57
2023/08/01 08:27:13;;;;;;;6.75;2.78;;;;;;;15.90;100.00;96035.50;5037734;28;20045;-54
2023/08/01 08:29:39;;;;;;;4.50;2.08;;;;;;;16.07;100.00;96042.94;5059657;28;20041;-55
2023/08/01 08:32:06;;;;;;;6.57;2.10;;;;;;;16.11;100.00;96041.97;5060334;28;20395;-60
2023/08/01 08:34:33;;;;;;;5.85;2.38;;;;;;;16.05;100.00;96035.06;5061305;28;20052;-57
2023/08/01 08:36:59;;;;;;;5.07;1.95;;;;;;;16.21;100.00;96035.38;5063306;28;20700;-56
2023/08/01 08:39:26;;;;;;;6.22;2.20;;;;;;;16.33;100.00;96023.03;5061401;28;20048;-57
2023/08/01 08:41:53;;;;;;;4.00;1.73;;;;;;;16.49;100.00;96021.41;5060278;28;20546;-57
2023/08/01 08:44:20;;;;;;;3.55;1.73;;;;;;;16.51;100.00;96010.94;5063528;28;20044;-57
2023/08/01 08:46:51;;;;;;;3.20;1.52;;;;;;;16.69;100.00;96021.03;5062938;28;20044;-57
2023/08/01 08:49:20;;;;;;;3.63;1.73;;;;;;;16.72;100.00;96021.19;5053814;28;20067;-57
2023/08/01 08:51:48;;;;;;;4.32;1.50;;;;;;;16.96;100.00;96022.56;5014025;28;20150;-60
2023/08/01 08:54:16;;;;;;;2.85;1.33;;;;;;;17.10;100.00;96027.84;5054062;28;20052;-58
2023/08/01 08:56:43;;;;;;;2.88;1.48;;;;;;;17.10;100.00;96024.31;5060580;28;20823;-58
2023/08/01 08:59:10;;;;;;;3.53;1.35;;;;;;;16.83;100.00;96032.56;5059398;28;20120;-58
2023/08/01 09:01:38;;;;;;;4.05;1.70;;;;;;;16.54;100.00;96031.34;5060186;28;20033;-60
2023/08/01 09:04:06;;;;;;;2.03;1.15;;;;;;;16.59;100.00;96041.31;5059879;28;20044;-57
2023/08/01 09:06:39;;;;;;;3.53;1.27;;;;;;;16.48;100.00;96052.56;5058595;28;20047;-57
2023/08/01 09:09:11;;;;;;;4.18;1.33;;;;;;;16.52;100.00;96058.97;5059113;28;20115;-57
2023/08/01 09:11:49;;;;;;;4.55;1.23;;;;;;;16.44;100.00;96067.97;5060101;28;20060;-58
2023/08/01 09:14:16;;;;;;;4.50;1.40;;;;;;;16.49;100.00;96069.75;5059895;28;20127;-58
2023/08/01 09:16:44;;;;;;;2.55;1.05;;;;;;;16.52;100.00;96069.91;5059547;28;20049;-58
2023/08/01 09:19:19;;;;;;;3.15;1.23;;;;;;;16.58;100.00;96076.00;5059051;28;20399;-58
2023/08/01 09:21:47;;;;;;;2.58;1.00;;;;;;;16.57;100.00;96079.88;5057177;28;20795;-58
2023/08/01 09:24:15;;;;;;;2.53;1.02;;;;;;;16.68;100.00;96087.72;5060134;28;20040;-59
2023/08/01 09:26:43;;;;;;;2.15;0.80;;;;;;;16.75;100.00;96083.41;5057877;28;20522;-58
2023/08/01 09:29:10;;;;;;;2.15;0.80;;;;;;;16.99;100.00;96070.31;5059655;28;20048;-55
2023/08/01 09:31:38;;;;;;;1.27;0.50;;;;;;;16.96;100.00;96069.03;5060029;28;20037;-54
2023/08/01 09:34:21;;;;;;;1.35;0.40;;;;;;;16.86;100.00;96078.38;5059651;28;20051;-55
2023/08/01 09:36:48;;;;;;;2.35;0.63;;;;;;;17.00;100.00;96080.13;5059434;28;20996;-56
2023/08/01 09:39:19;;;;;;;1.80;0.57;;;;;;;17.14;100.00;96086.22;5060014;28;21286;-57
2023/08/01 09:41:54;;;;;;;;;;;;;;;17.34;100.00;96069.41;5059954;28;20043;-55
2023/08/01 09:44:21;;;;;;;1.17;0.57;;;;;;;17.56;100.00;96079.28;5056124;28;20472;-55
2023/08/01 09:46:59;;;;;;;1.63;0.70;;;;;;;17.60;100.00;96072.03;5060292;28;20052;-57
2023/08/01 09:49:27;;;;;;;1.35;0.50;;;;;;;17.63;100.00;96070.56;5059341;28;20548;-56
2023/08/01 09:51:54;;;;;;;1.42;0.60;;;;;;;17.73;100.00;96077.59;5058975;28;20132;-55
2023/08/01 09:54:21;;;;;;;1.20;0.30;;;;;;;17.57;100.00;96067.22;5058976;28;20120;-58
2023/08/01 09:56:50;;;;;;;1.80;0.40;;;;;;;17.78;100.00;96063.72;5059693;28;20055;-58
2023/08/01 09:59:22;;;;;;;2.08;0.85;;;;;;;17.72;100.00;96076.00;5058968;28;20072;-58
2023/08/01 10:01:50;;;;;;;0.63;0.20;;;;;;;17.68;100.00;96078.59;5057063;28;20659;-58
2023/08/01 10:04:26;;;;;;;0.93;0.40;;;;;;;17.57;100.00;96083.63;5056796;28;20106;-58
2023/08/01 10:07:04;;;;;;;0.75;0.40;;;;;;;17.32;100.00;96080.69;5058928;28;20047;-58
2023/08/01 10:09:32;;;;;;;0.22;0.20;;;;;;;17.35;100.00;96079.22;5061710;28;20074;-58
2023/08/01 10:11:58;;;;;;;0.80;0.40;;;;;;;17.20;100.00;96086.84;5058661;28;20041;-58
2023/08/01 10:14:26;;;;;;;0.43;0.30;;;;;;;17.05;100.00;96090.09;5059001;28;20048;-58
2023/08/01 10:16:54;;;;;;;0.85;0.50;;;;;;;17.05;100.00;96093.66;5058363;28;20040;-58
2023/08/01 10:19:22;;;;;;;0.68;0.30;;;;;;;16.96;100.00;96090.09;5062032;28;20072;-57
2023/08/01 10:21:50;;;;;;;0.98;0.50;;;;;;;17.10;100.00;96095.41;5057535;28;20910;-57
2023/08/01 10:24:20;;;;;;;1.63;0.50;;;;;;;17.15;100.00;96095.22;5058267;28;20472;-58
2023/08/01 10:26:47;;;;;;;0.80;0.40;;;;;;;17.34;100.00;96091.28;5058819;28;20032;-58
2023/08/01 10:29:13;;;;;;;2.95;0.57;;;;;;;17.55;100.00;96094.91;5058327;28;20040;-58
2023/08/01 10:31:51;;;;;;;2.20;0.47;;;;;;;17.80;99.67;96084.16;5060632;28;20047;-57
2023/08/01 10:34:18;;;;;;;2.15;0.60;;;;;;;18.09;98.20;96089.19;5058543;28;20119;-57
2023/08/01 10:36:54;;;;;;;2.08;0.70;;;;;;;18.36;97.69;96096.06;5059668;28;20056;-56
2023/08/01 10:39:22;;;;;;;1.65;0.60;;;;;;;18.24;99.59;96101.47;5059118;28;20047;-57
2023/08/01 10:42:00;;;;;;;2.05;0.80;;;;;;;17.91;98.13;96111.16;5058424;28;20049;-57
2023/08/01 10:44:27;;;;;;;2.45;0.70;;;;;;;17.83;94.10;96109.28;5059483;28;20095;-55
2023/08/01 10:47:00;;;;;;;1.73;0.47;;;;;;;17.97;97.04;96107.09;5058778;28;20040;-56
2023/08/01 10:49:42;;;;;;;1.25;0.50;;;;;;;18.19;96.82;96102.47;5058806;28;20596;-56
2023/08/01 10:52:16;;;;;;;0.93;0.50;;;;;;;18.19;92.54;96105.22;5056580;28;20760;-57
2023/08/01 10:54:43;;;;;;;1.40;0.63;;;;;;;18.49;95.65;96101.59;5061876;28;20728;-57
2023/08/01 10:57:17;;;;;;;1.35;0.50;;;;;;;18.59;91.44;96106.69;5062348;28;20117;-57
2023/08/01 10:59:44;;;;;;;1.15;0.60;;;;;;;18.78;90.30;96119.09;5062280;28;20509;-56
2023/08/01 11:02:11;;;;;;;2.88;0.70;;;;;;;18.70;84.64;96121.59;5061282;28;20482;-57
2023/08/01 11:04:37;;;;;;;1.60;0.80;;;;;;;18.71;86.69;96125.13;5060735;28;20040;-58
2023/08/01 11:07:04;;;;;;;3.10;1.02;;;;;;;18.59;84.66;96118.47;5051511;28;20052;-58
2023/08/01 11:09:30;;;;;;;2.15;0.68;;;;;;;18.70;85.66;96120.78;5026888;28;20057;-57
2023/08/01 11:11:59;;;;;;;2.05;0.85;;;;;;;18.91;88.23;96115.25;5051268;28;20980;-57
2023/08/01 11:14:27;;;;;;;1.70;0.60;;;;;;;18.98;87.64;96117.44;5062387;28;20037;-56
2023/08/01 11:16:55;;;;;;;1.85;0.68;;;;;;;18.98;88.36;96112.75;5060892;28;20051;-58
2023/08/01 11:19:27;;;;;;;2.50;0.68;;;;;;;18.68;85.47;96121.09;5062627;28;20668;-58
2023/08/01 11:21:56;;;;;;;1.83;0.70;;;;;;;18.40;86.18;96123.59;5025621;28;20060;-56
2023/08/01 11:24:25;;;;;;;4.60;0.90;;;;;;;18.46;86.92;96136.75;5057687;28;20067;-55
2023/08/01 11:26:53;;;;;;;2.05;0.90;;;;;;;18.54;87.65;96143.31;5016386;28;20294;-59